createdAt,value
2022-09-28T00:00:47.805Z,18.48
2022-09-28T00:03:34.110Z,18.46
2022-09-28T00:06:21.680Z,18.48
2022-09-28T00:09:07.252Z,18.48
2022-09-28T00:11:53.940Z,18.49
2022-09-28T00:14:40.609Z,18.48
2022-09-28T00:17:26.633Z,18.49
2022-09-28T00:20:12.531Z,18.49
2022-09-28T00:22:58.122Z,18.49
2022-09-28T00:25:43.359Z,18.49
2022-09-28T00:28:28.494Z,18.49
2022-09-28T00:31:13.608Z,18.50
2022-09-28T00:34:00.426Z,18.49
2022-09-28T00:36:46.967Z,18.51
2022-09-28T00:39:32.531Z,18.51
2022-09-28T00:42:23.094Z,18.51
2022-09-28T00:45:09.971Z,18.52
2022-09-28T00:47:59.029Z,18.53
2022-09-28T00:50:45.926Z,18.52
2022-09-28T00:53:35.032Z,18.52
2022-09-28T00:56:23.178Z,18.52
2022-09-28T00:59:09.313Z,18.52
2022-09-28T01:01:54.801Z,18.52
2022-09-28T01:04:40.175Z,18.54
2022-09-28T01:07:25.448Z,18.54
2022-09-28T01:10:10.976Z,18.54
2022-09-28T01:12:56.499Z,18.52
2022-09-28T01:15:56.863Z,18.53
2022-09-28T01:18:51.348Z,18.53
2022-09-28T01:22:12.398Z,18.54
2022-09-28T01:25:12.228Z,18.54
2022-09-28T01:28:18.761Z,18.54
2022-09-28T01:31:16.815Z,18.55
2022-09-28T01:34:15.286Z,18.54
2022-09-28T01:37:06.495Z,18.53
2022-09-28T01:39:54.555Z,18.54
2022-09-28T01:42:43.517Z,18.54
2022-09-28T01:45:35.650Z,18.53
2022-09-28T01:48:31.032Z,18.55
2022-09-28T01:51:29.184Z,18.55
2022-09-28T01:54:21.218Z,18.56
2022-09-28T01:57:21.916Z,18.54
2022-09-28T02:00:13.327Z,18.54
2022-09-28T02:03:12.233Z,18.55
2022-09-28T02:06:08.591Z,18.56
2022-09-28T02:09:00.019Z,18.55
2022-09-28T02:12:02.971Z,18.55
2022-09-28T02:14:50.205Z,18.56
2022-09-28T02:17:35.492Z,18.55
2022-09-28T02:20:23.451Z,18.55
2022-09-28T02:23:09.720Z,18.55
2022-09-28T02:26:04.052Z,18.55
2022-09-28T02:28:50.176Z,18.55
2022-09-28T02:31:35.678Z,18.55
2022-09-28T02:34:21.541Z,18.56
2022-09-28T02:37:07.345Z,18.55
2022-09-28T02:39:52.674Z,18.56
2022-09-28T02:42:52.060Z,18.56
2022-09-28T02:45:49.771Z,18.54
2022-09-28T02:49:27.838Z,18.49
2022-09-28T02:52:21.149Z,18.48
2022-09-28T02:55:15.563Z,18.47
2022-09-28T02:58:16.674Z,18.44
2022-09-28T03:01:15.238Z,18.40
2022-09-28T03:04:12.396Z,18.37
2022-09-28T03:07:07.053Z,18.36
2022-09-28T03:10:19.524Z,18.35
2022-09-28T03:13:06.057Z,18.34
2022-09-28T03:15:51.987Z,18.37
2022-09-28T03:18:37.784Z,18.33
2022-09-28T03:21:23.770Z,18.32
2022-09-28T03:24:11.134Z,18.33
2022-09-28T03:26:56.716Z,18.32
2022-09-28T03:29:41.941Z,18.32
2022-09-28T03:32:27.609Z,18.30
2022-09-28T03:35:13.079Z,18.30
2022-09-28T03:37:58.315Z,18.30
2022-09-28T03:40:56.480Z,18.32
2022-09-28T03:43:42.266Z,18.33
2022-09-28T03:46:28.334Z,18.35
2022-09-28T03:49:17.836Z,18.36
2022-09-28T03:52:03.648Z,18.39
2022-09-28T03:54:49.472Z,18.41
2022-09-28T03:57:34.788Z,18.41
2022-09-28T04:00:20.285Z,18.47
2022-09-28T04:03:05.635Z,18.51
2022-09-28T04:05:52.948Z,18.51
2022-09-28T04:08:38.537Z,18.56
2022-09-28T04:11:24.233Z,18.57
2022-09-28T04:14:09.680Z,18.62
2022-09-28T04:16:55.741Z,18.63
2022-09-28T04:19:43.673Z,18.65
2022-09-28T04:22:38.073Z,18.69
2022-09-28T04:25:23.275Z,18.72
2022-09-28T04:28:28.073Z,18.75
2022-09-28T04:31:17.809Z,18.77
2022-09-28T04:34:03.449Z,18.81
2022-09-28T04:36:52.236Z,18.82
2022-09-28T04:39:38.253Z,18.83
2022-09-28T04:42:25.060Z,18.86
2022-09-28T04:45:11.000Z,18.89
2022-09-28T04:48:01.658Z,18.88
2022-09-28T04:51:22.514Z,18.88
2022-09-28T04:54:08.293Z,18.86
2022-09-28T04:56:55.407Z,18.90
2022-09-28T04:59:41.246Z,18.88
2022-09-28T05:02:27.786Z,18.86
2022-09-28T05:05:32.188Z,18.87
2022-09-28T05:08:29.869Z,18.86
2022-09-28T05:11:15.325Z,18.85
2022-09-28T05:14:00.956Z,18.83
2022-09-28T05:16:47.175Z,18.82
2022-09-28T05:19:44.609Z,18.83
2022-09-28T05:22:29.972Z,18.82
2022-09-28T05:25:15.171Z,18.82
2022-09-28T05:28:28.965Z,18.81
2022-09-28T05:31:32.916Z,18.80
2022-09-28T05:34:38.876Z,18.80
2022-09-28T05:37:24.163Z,18.77
2022-09-28T05:40:10.392Z,18.76
2022-09-28T05:43:01.940Z,18.75
2022-09-28T05:45:51.617Z,18.73
2022-09-28T05:48:40.813Z,18.72
2022-09-28T05:51:26.211Z,18.69
2022-09-28T05:54:11.416Z,18.68
2022-09-28T05:57:00.428Z,18.68
2022-09-28T05:59:45.956Z,18.63
2022-09-28T06:02:31.694Z,18.65
2022-09-28T06:05:18.076Z,18.63
2022-09-28T06:08:05.323Z,18.62
2022-09-28T06:10:51.132Z,18.60
2022-09-28T06:13:36.876Z,18.57
2022-09-28T06:16:22.178Z,18.58
2022-09-28T06:19:11.760Z,18.57
2022-09-28T06:22:26.284Z,18.56
2022-09-28T06:25:27.671Z,18.56
2022-09-28T06:28:14.760Z,18.53
2022-09-28T06:31:01.115Z,18.50
2022-09-28T06:33:48.548Z,18.49
2022-09-28T06:36:33.890Z,18.49
2022-09-28T06:39:19.123Z,18.48
2022-09-28T06:42:04.422Z,18.46
2022-09-28T06:45:11.130Z,18.46
2022-09-28T06:48:15.429Z,18.46
2022-09-28T06:51:01.291Z,18.44
2022-09-28T06:53:53.922Z,18.44
2022-09-28T06:56:55.446Z,18.43
2022-09-28T06:59:41.790Z,18.42
2022-09-28T07:02:27.416Z,18.44
2022-09-28T07:05:15.810Z,18.41
2022-09-28T07:08:33.578Z,18.40
2022-09-28T07:11:27.041Z,18.40
2022-09-28T07:14:47.706Z,18.40
2022-09-28T07:17:43.050Z,18.38
2022-09-28T07:20:49.956Z,18.38
2022-09-28T07:23:49.258Z,18.38
2022-09-28T07:26:41.456Z,18.36
2022-09-28T07:30:02.029Z,18.38
2022-09-28T07:33:04.583Z,18.37
2022-09-28T07:36:17.850Z,18.38
2022-09-28T07:39:03.722Z,18.37
2022-09-28T07:41:49.137Z,18.35
2022-09-28T07:44:36.653Z,18.36
2022-09-28T07:47:30.905Z,18.35
2022-09-28T07:50:36.321Z,18.35
2022-09-28T07:53:31.082Z,18.37
2022-09-28T07:56:28.985Z,18.37
2022-09-28T07:59:20.972Z,18.36
2022-09-28T08:02:25.871Z,18.36
2022-09-28T08:05:12.497Z,18.35
2022-09-28T08:07:59.675Z,18.36
2022-09-28T08:10:47.781Z,18.35
2022-09-28T08:14:02.722Z,18.36
2022-09-28T08:17:12.450Z,18.35
2022-09-28T08:20:23.196Z,18.34
2022-09-28T08:23:10.307Z,18.34
2022-09-28T08:25:56.936Z,18.34
2022-09-28T08:28:43.538Z,18.33
2022-09-28T08:31:48.268Z,18.33
2022-09-28T08:34:56.090Z,18.33
2022-09-28T08:38:03.464Z,18.33
2022-09-28T08:41:25.724Z,18.33
2022-09-28T08:44:26.191Z,18.33
2022-09-28T08:48:03.870Z,18.33
2022-09-28T08:51:31.012Z,18.34
2022-09-28T08:54:37.089Z,18.33
2022-09-28T08:57:37.877Z,18.33
2022-09-28T09:00:33.605Z,18.32
2022-09-28T09:03:30.678Z,18.31
2022-09-28T09:07:32.087Z,18.30
2022-09-28T09:10:36.352Z,18.32
2022-09-28T09:13:48.039Z,18.32
2022-09-28T09:16:40.200Z,18.30
2022-09-28T09:19:44.218Z,18.30
2022-09-28T09:22:56.745Z,18.31
2022-09-28T09:25:50.717Z,18.30
2022-09-28T09:28:56.257Z,18.30
2022-09-28T09:32:03.143Z,18.31
2022-09-28T09:35:11.429Z,18.30
2022-09-28T09:38:52.897Z,18.30
2022-09-28T09:42:24.434Z,18.31
2022-09-28T09:45:46.884Z,18.29
2022-09-28T09:49:04.349Z,18.30
2022-09-28T09:52:14.715Z,18.29
2022-09-28T09:55:14.659Z,18.27
2022-09-28T09:58:40.062Z,18.30
2022-09-28T10:01:39.052Z,18.28
2022-09-28T10:04:46.802Z,18.31
2022-09-28T10:07:58.875Z,18.30
2022-09-28T10:11:20.641Z,18.30
2022-09-28T10:14:17.195Z,18.30
2022-09-28T10:17:12.027Z,18.30
2022-09-28T10:20:16.665Z,18.30
2022-09-28T10:23:29.929Z,18.28
2022-09-28T10:26:25.449Z,18.28
2022-09-28T10:29:19.722Z,18.30
2022-09-28T10:32:25.100Z,18.31
2022-09-28T10:35:27.165Z,18.30
2022-09-28T10:38:19.224Z,18.28
2022-09-28T10:41:13.543Z,18.28
2022-09-28T10:44:26.178Z,18.28
2022-09-28T10:47:32.703Z,18.30
2022-09-28T10:50:24.418Z,18.30
2022-09-28T10:53:26.470Z,18.29
2022-09-28T10:56:40.269Z,18.31
2022-09-28T10:59:29.833Z,18.32
2022-09-28T11:02:47.714Z,18.33
2022-09-28T11:05:38.775Z,18.31
2022-09-28T11:08:31.842Z,18.28
2022-09-28T11:11:20.171Z,18.28
2022-09-28T11:14:25.050Z,18.33
2022-09-28T11:17:33.619Z,18.35
2022-09-28T11:20:28.013Z,18.35
2022-09-28T11:23:26.044Z,18.37
2022-09-28T11:26:18.435Z,18.35
2022-09-28T11:29:07.465Z,18.38
2022-09-28T11:32:15.641Z,18.36
2022-09-28T11:35:32.134Z,18.38
2022-09-28T11:38:48.643Z,18.36
2022-09-28T11:42:05.218Z,18.34
2022-09-28T11:45:39.989Z,18.35
2022-09-28T11:48:37.828Z,18.33
2022-09-28T11:51:31.424Z,18.35
2022-09-28T11:54:28.975Z,18.35
2022-09-28T11:57:21.203Z,18.39
2022-09-28T12:00:14.691Z,18.39
2022-09-28T12:03:26.941Z,18.41
2022-09-28T12:06:17.972Z,18.40
2022-09-28T12:09:24.566Z,18.42
2022-09-28T12:12:34.767Z,18.42
2022-09-28T12:16:20.050Z,18.42
2022-09-28T12:19:01.927Z,18.41
2022-09-28T12:21:51.446Z,18.42
2022-09-28T12:24:48.218Z,18.41
2022-09-28T12:27:44.172Z,18.40
2022-09-28T12:30:36.612Z,18.44
2022-09-28T12:33:22.005Z,18.46
2022-09-28T12:36:32.584Z,18.53
2022-09-28T12:39:35.652Z,18.57
2022-09-28T12:43:03.405Z,18.61
2022-09-28T12:46:18.459Z,18.65
2022-09-28T12:52:43.652Z,18.70
2022-09-28T12:55:38.554Z,18.73
2022-09-28T12:58:32.877Z,18.75
2022-09-28T13:01:39.807Z,18.79
2022-09-28T13:04:37.220Z,18.83
2022-09-28T13:07:42.913Z,18.87
2022-09-28T13:10:43.040Z,18.89
2022-09-28T13:13:53.226Z,18.94
2022-09-28T13:16:49.008Z,18.96
2022-09-28T13:20:04.837Z,18.98
2022-09-28T13:23:09.850Z,19.02
2022-09-28T13:26:03.370Z,19.05
2022-09-28T13:28:51.414Z,19.10
2022-09-28T13:31:40.960Z,19.11
2022-09-28T13:34:29.745Z,19.14
2022-09-28T13:37:16.881Z,19.14
2022-09-28T13:40:06.284Z,19.14
2022-09-28T13:43:19.606Z,19.14
2022-09-28T13:46:34.701Z,19.16
2022-09-28T13:49:54.265Z,19.13
2022-09-28T13:52:49.667Z,19.11
2022-09-28T13:56:00.761Z,19.09
2022-09-28T13:58:57.888Z,19.11
2022-09-28T14:01:56.092Z,19.19
2022-09-28T14:05:23.556Z,19.17
2022-09-28T14:08:09.023Z,19.17
2022-09-28T14:10:57.283Z,19.15
2022-09-28T14:13:45.403Z,19.18
2022-09-28T14:16:33.778Z,19.23
2022-09-28T14:19:34.391Z,19.27
2022-09-28T14:22:34.918Z,19.30
2022-09-28T14:25:24.805Z,19.32
2022-09-28T14:28:31.915Z,19.32
2022-09-28T14:31:29.047Z,19.34
2022-09-28T14:34:43.635Z,19.34
2022-09-28T14:37:58.760Z,19.32
2022-09-28T14:41:11.382Z,19.34
2022-09-28T14:44:11.814Z,19.31
2022-09-28T14:47:34.233Z,19.26
2022-09-28T14:50:30.274Z,19.23
2022-09-28T14:53:22.165Z,19.21
2022-09-28T14:56:09.141Z,19.19
2022-09-28T14:58:57.002Z,19.17
2022-09-28T15:01:50.676Z,19.16
2022-09-28T15:04:39.238Z,19.16
2022-09-28T15:07:29.667Z,19.15
2022-09-28T15:10:31.510Z,19.15
2022-09-28T15:13:27.298Z,19.16
2022-09-28T15:16:15.486Z,19.14
2022-09-28T15:19:30.176Z,19.13
2022-09-28T15:22:20.098Z,19.11
2022-09-28T15:25:14.672Z,19.11
2022-09-28T15:28:03.505Z,19.11
2022-09-28T15:30:50.068Z,19.11
2022-09-28T15:33:54.307Z,19.09
2022-09-28T15:36:42.349Z,19.10
2022-09-28T15:39:32.176Z,19.09
2022-09-28T15:42:18.730Z,19.07
2022-09-28T15:45:22.230Z,19.07
2022-09-28T15:48:31.025Z,19.07
2022-09-28T15:51:16.310Z,19.07
2022-09-28T15:54:16.441Z,19.07
2022-09-28T15:57:03.072Z,19.06
2022-09-28T15:59:56.888Z,19.07
2022-09-28T16:03:00.387Z,19.13
2022-09-28T16:06:05.485Z,19.18
2022-09-28T16:08:50.963Z,19.21
2022-09-28T16:11:40.598Z,19.24
2022-09-28T16:14:27.270Z,19.28
2022-09-28T16:17:32.813Z,19.29
2022-09-28T16:20:31.964Z,19.35
2022-09-28T16:23:22.845Z,19.37
2022-09-28T16:26:25.387Z,19.38
2022-09-28T16:29:39.922Z,19.39
2022-09-28T16:32:25.547Z,19.43
2022-09-28T16:35:13.697Z,19.46
2022-09-28T16:38:11.173Z,19.49
2022-09-28T16:41:02.019Z,19.48
2022-09-28T16:43:47.677Z,19.50
2022-09-28T16:46:37.715Z,19.52
2022-09-28T16:49:25.439Z,19.55
2022-09-28T16:52:34.452Z,19.58
2022-09-28T16:55:39.648Z,19.61
2022-09-28T16:58:25.644Z,19.62
2022-09-28T17:01:12.488Z,19.64
2022-09-28T17:03:57.929Z,19.66
2022-09-28T17:06:43.616Z,19.65
2022-09-28T17:09:29.637Z,19.64
2022-09-28T17:12:22.961Z,19.68
2022-09-28T17:15:08.735Z,19.67
2022-09-28T17:17:55.926Z,19.69
2022-09-28T17:20:44.184Z,19.70
2022-09-28T17:23:29.450Z,19.69
2022-09-28T17:26:24.599Z,19.71
2022-09-28T17:29:14.640Z,19.74
2022-09-28T17:32:00.449Z,19.73
2022-09-28T17:34:55.945Z,19.69
2022-09-28T17:37:53.294Z,19.67
2022-09-28T17:40:40.783Z,19.66
2022-09-28T17:43:26.456Z,19.67
2022-09-28T17:46:27.366Z,19.66
2022-09-28T17:49:12.967Z,19.66
2022-09-28T17:51:58.646Z,19.63
2022-09-28T17:54:44.596Z,19.59
2022-09-28T17:57:31.144Z,19.59
2022-09-28T18:00:17.782Z,19.56
2022-09-28T18:03:03.788Z,19.54
2022-09-28T18:05:58.457Z,19.52
2022-09-28T18:08:44.478Z,19.52
2022-09-28T18:11:31.738Z,19.53
2022-09-28T18:14:17.270Z,19.51
2022-09-28T18:17:02.728Z,19.50
2022-09-28T18:19:48.154Z,19.47
2022-09-28T18:22:33.877Z,19.49
2022-09-28T18:25:19.798Z,19.45
2022-09-28T18:28:05.774Z,19.43
2022-09-28T18:30:51.786Z,19.39
2022-09-28T18:33:37.921Z,19.38
2022-09-28T18:36:28.880Z,19.38
2022-09-28T18:39:14.754Z,19.37
2022-09-28T18:42:00.898Z,19.35
2022-09-28T18:44:46.370Z,19.30
2022-09-28T18:47:33.501Z,19.29
2022-09-28T18:50:19.499Z,19.28
2022-09-28T18:53:13.999Z,19.27
2022-09-28T18:56:05.575Z,19.24
2022-09-28T18:58:54.042Z,19.26
2022-09-28T19:01:42.197Z,19.25
2022-09-28T19:04:27.678Z,19.21
2022-09-28T19:07:13.136Z,19.21
2022-09-28T19:09:58.559Z,19.20
2022-09-28T19:12:43.989Z,19.21
2022-09-28T19:15:29.328Z,19.20
2022-09-28T19:18:15.259Z,19.19
2022-09-28T19:21:08.877Z,19.18
2022-09-28T19:23:55.610Z,19.18
2022-09-28T19:26:41.816Z,19.19
2022-09-28T19:29:27.419Z,19.18
2022-09-28T19:32:13.111Z,19.16
2022-09-28T19:34:58.642Z,19.15
2022-09-28T19:37:46.655Z,19.15
2022-09-28T19:40:32.005Z,19.15
2022-09-28T19:43:18.485Z,19.14
2022-09-28T19:46:08.757Z,19.13
2022-09-28T19:48:56.601Z,19.11
2022-09-28T19:51:51.646Z,19.11
2022-09-28T19:54:56.911Z,19.11
2022-09-28T19:57:46.341Z,19.10
2022-09-28T20:00:31.771Z,19.10
2022-09-28T20:03:18.650Z,19.09
2022-09-28T20:06:03.965Z,19.09
2022-09-28T20:08:49.725Z,19.09
2022-09-28T20:11:35.943Z,19.07
2022-09-28T20:14:23.445Z,19.06
2022-09-28T20:17:11.242Z,19.04
2022-09-28T20:19:57.634Z,19.05
2022-09-28T20:22:43.926Z,19.03
2022-09-28T20:25:29.426Z,19.03
2022-09-28T20:28:16.136Z,19.02
2022-09-28T20:31:12.048Z,19.02
2022-09-28T20:33:57.640Z,19.01
2022-09-28T20:36:44.598Z,19.01
2022-09-28T20:39:30.286Z,19.00
2022-09-28T20:42:16.598Z,18.98
2022-09-28T20:45:02.036Z,18.98
2022-09-28T20:47:47.266Z,18.97
2022-09-28T20:50:33.899Z,18.97
2022-09-28T20:53:19.196Z,18.96
2022-09-28T20:56:10.373Z,18.96
2022-09-28T20:58:56.959Z,18.97
2022-09-28T21:01:42.222Z,18.96
2022-09-28T21:04:27.628Z,18.96
2022-09-28T21:07:12.831Z,18.95
2022-09-28T21:09:57.996Z,18.95
2022-09-28T21:12:48.174Z,18.94
2022-09-28T21:15:33.842Z,18.92
2022-09-28T21:18:20.500Z,18.91
2022-09-28T21:21:12.000Z,18.93
2022-09-28T21:23:58.123Z,18.90
2022-09-28T21:26:43.660Z,18.92
2022-09-28T21:29:29.254Z,18.91
2022-09-28T21:32:15.016Z,18.91
2022-09-28T21:35:00.490Z,18.92
2022-09-28T21:37:46.270Z,18.90
2022-09-28T21:40:31.892Z,18.91
2022-09-28T21:43:17.249Z,18.89
2022-09-28T21:46:02.899Z,18.89
2022-09-28T21:48:53.041Z,18.89
2022-09-28T21:51:38.554Z,18.87
2022-09-28T21:54:23.919Z,18.88
2022-09-28T21:57:09.752Z,18.87
2022-09-28T21:59:55.211Z,18.86
2022-09-28T22:02:41.509Z,18.86
2022-09-28T22:05:28.123Z,18.85
2022-09-28T22:08:13.926Z,18.87
2022-09-28T22:11:05.713Z,18.86
2022-09-28T22:13:53.943Z,18.84
2022-09-28T22:16:38.971Z,18.84
2022-09-28T22:19:24.262Z,18.85
2022-09-28T22:22:09.602Z,18.84
2022-09-28T22:24:56.195Z,18.84
2022-09-28T22:27:41.847Z,18.84
2022-09-28T22:30:27.258Z,18.83
2022-09-28T22:33:12.556Z,18.85
2022-09-28T22:35:57.918Z,18.85
2022-09-28T22:38:44.670Z,18.86
2022-09-28T22:41:30.131Z,18.87
2022-09-28T22:44:15.834Z,18.86
2022-09-28T22:47:01.401Z,18.87
2022-09-28T22:49:46.848Z,18.86
2022-09-28T22:52:32.366Z,18.86
2022-09-28T22:55:17.585Z,18.86
2022-09-28T22:58:02.813Z,18.85
2022-09-28T23:00:48.453Z,18.86
2022-09-28T23:03:35.005Z,18.85
2022-09-28T23:06:23.265Z,18.86
2022-09-28T23:09:09.027Z,18.85
2022-09-28T23:11:54.454Z,18.87
2022-09-28T23:14:39.497Z,18.85
2022-09-28T23:17:24.731Z,18.86
2022-09-28T23:20:10.064Z,18.85
2022-09-28T23:22:55.644Z,18.86
2022-09-28T23:25:40.775Z,18.85
2022-09-28T23:28:27.194Z,18.86
2022-09-28T23:31:35.863Z,18.86
2022-09-28T23:34:21.585Z,18.86
2022-09-28T23:37:06.819Z,18.86
2022-09-28T23:39:52.171Z,18.86
2022-09-28T23:42:37.415Z,18.85
2022-09-28T23:45:22.807Z,18.86
2022-09-28T23:48:07.954Z,18.85
2022-09-28T23:50:53.414Z,18.85
2022-09-28T23:53:38.739Z,18.85
2022-09-28T23:56:24.152Z,18.85
2022-09-28T23:59:09.549Z,18.85
